sensor_id;sensor_type;location;lat;lon;timestamp;pressure;altitude;pressure_sealevel;temperature;humidity
77112;BME280;66064;50.226;14.344;2023-08-06T00:01:16;98617.69;;;15.43;100.00
77112;BME280;66064;50.226;14.344;2023-08-06T00:03:49;98609.81;;;15.37;100.00
77112;BME280;66064;50.226;14.344;2023-08-06T00:06:15;98609.81;;;15.37;100.00
77112;BME280;66064;50.226;14.344;2023-08-06T00:08:41;98611.56;;;15.38;100.00
77112;BME280;66064;50.226;14.344;2023-08-06T00:11:07;98609.78;;;15.38;100.00
77112;BME280;66064;50.226;14.344;2023-08-06T00:13:33;98608.75;;;15.43;100.00
77112;BME280;66064;50.226;14.344;2023-08-06T00:16:12;98610.47;;;15.47;100.00
77112;BME280;66064;50.226;14.344;2023-08-06T00:18:39;98612.25;;;15.46;100.00
77112;BME280;66064;50.226;14.344;2023-08-06T00:21:05;98609.56;;;15.46;100.00
77112;BME280;66064;50.226;14.344;2023-08-06T00:23:31;98605.09;;;15.47;100.00
77112;BME280;66064;50.226;14.344;2023-08-06T00:25:57;98607.84;;;15.44;100.00
77112;BME280;66064;50.226;14.344;2023-08-06T00:28:24;98598.00;;;15.44;100.00
77112;BME280;66064;50.226;14.344;2023-08-06T00:30:56;98593.53;;;15.45;100.00
77112;BME280;66064;50.226;14.344;2023-08-06T00:33:23;98582.06;;;15.39;100.00
77112;BME280;66064;50.226;14.344;2023-08-06T00:35:49;98576.59;;;15.43;100.00
77112;BME280;66064;50.226;14.344;2023-08-06T00:38:15;98566.03;;;15.36;100.00
77112;BME280;66064;50.226;14.344;2023-08-06T00:40:41;98558.88;;;15.37;100.00
77112;BME280;66064;50.226;14.344;2023-08-06T00:43:07;98549.91;;;15.38;100.00
77112;BME280;66064;50.226;14.344;2023-08-06T00:45:36;98548.31;;;15.29;100.00
77112;BME280;66064;50.226;14.344;2023-08-06T00:48:03;98547.47;;;15.27;100.00
77112;BME280;66064;50.226;14.344;2023-08-06T00:50:31;98551.06;;;15.26;100.00
77112;BME280;66064;50.226;14.344;2023-08-06T00:52:57;98555.50;;;15.29;100.00
77112;BME280;66064;50.226;14.344;2023-08-06T00:55:23;98552.03;;;15.25;100.00
77112;BME280;66064;50.226;14.344;2023-08-06T00:57:50;98547.56;;;15.26;100.00
77112;BME280;66064;50.226;14.344;2023-08-06T01:00:17;98546.66;;;15.25;100.00
77112;BME280;66064;50.226;14.344;2023-08-06T01:02:44;98542.28;;;15.21;100.00
77112;BME280;66064;50.226;14.344;2023-08-06T01:05:10;98517.44;;;15.15;100.00
77112;BME280;66064;50.226;14.344;2023-08-06T01:15:53;98529.09;;;15.12;100.00
77112;BME280;66064;50.226;14.344;2023-08-06T01:18:21;98534.38;;;15.15;100.00
77112;BME280;66064;50.226;14.344;2023-08-06T01:20:47;98537.06;;;15.15;100.00
77112;BME280;66064;50.226;14.344;2023-08-06T01:23:15;98532.63;;;15.14;100.00
77112;BME280;66064;50.226;14.344;2023-08-06T01:25:49;98526.41;;;15.12;100.00
77112;BME280;66064;50.226;14.344;2023-08-06T01:28:56;98541.66;;;15.10;100.00
77112;BME280;66064;50.226;14.344;2023-08-06T01:31:33;98520.38;;;15.04;100.00
77112;BME280;66064;50.226;14.344;2023-08-06T01:34:01;98517.66;;;15.05;100.00
77112;BME280;66064;50.226;14.344;2023-08-06T01:36:30;98513.06;;;15.11;100.00
77112;BME280;66064;50.226;14.344;2023-08-06T01:38:56;98505.25;;;15.01;100.00
77112;BME280;66064;50.226;14.344;2023-08-06T01:41:23;98500.88;;;14.97;100.00
77112;BME280;66064;50.226;14.344;2023-08-06T01:43:49;98515.03;;;15.04;100.00
77112;BME280;66064;50.226;14.344;2023-08-06T01:46:15;98507.97;;;15.00;100.00
77112;BME280;66064;50.226;14.344;2023-08-06T01:48:41;98504.38;;;15.01;100.00
77112;BME280;66064;50.226;14.344;2023-08-06T01:51:07;98516.84;;;15.02;100.00
77112;BME280;66064;50.226;14.344;2023-08-06T01:53:33;98505.28;;;15.00;100.00
77112;BME280;66064;50.226;14.344;2023-08-06T01:55:59;98503.50;;;15.00;100.00
77112;BME280;66064;50.226;14.344;2023-08-06T01:58:25;98493.66;;;15.01;100.00
77112;BME280;66064;50.226;14.344;2023-08-06T02:00:52;98498.94;;;15.04;100.00
77112;BME280;66064;50.226;14.344;2023-08-06T02:03:17;98490.16;;;14.97;100.00
77112;BME280;66064;50.226;14.344;2023-08-06T02:05:44;98491.09;;;14.96;100.00
77112;BME280;66064;50.226;14.344;2023-08-06T02:08:11;98494.56;;;15.00;100.00
77112;BME280;66064;50.226;14.344;2023-08-06T02:10:37;98499.91;;;15.01;100.00
77112;BME280;66064;50.226;14.344;2023-08-06T02:13:03;98503.53;;;14.99;100.00
77112;BME280;66064;50.226;14.344;2023-08-06T02:15:29;98498.13;;;15.00;100.00
77112;BME280;66064;50.226;14.344;2023-08-06T02:17:55;98497.25;;;15.00;100.00
77112;BME280;66064;50.226;14.344;2023-08-06T02:20:21;98504.44;;;14.98;100.00
77112;BME280;66064;50.226;14.344;2023-08-06T02:22:47;98508.88;;;14.99;100.00
77112;BME280;66064;50.226;14.344;2023-08-06T02:25:13;98498.28;;;14.94;100.00
77112;BME280;66064;50.226;14.344;2023-08-06T02:27:39;98514.25;;;14.99;100.00
77112;BME280;66064;50.226;14.344;2023-08-06T02:30:05;98514.34;;;14.94;100.00
77112;BME280;66064;50.226;14.344;2023-08-06T02:32:32;98514.25;;;14.99;100.00
77112;BME280;66064;50.226;14.344;2023-08-06T02:35:01;98517.00;;;14.96;100.00
77112;BME280;66064;50.226;14.344;2023-08-06T02:37:27;98499.06;;;14.99;100.00
77112;BME280;66064;50.226;14.344;2023-08-06T02:39:54;98495.47;;;15.00;100.00
77112;BME280;66064;50.226;14.344;2023-08-06T02:42:19;98490.06;;;15.02;100.00
77112;BME280;66064;50.226;14.344;2023-08-06T02:44:46;98488.31;;;15.01;100.00
77112;BME280;66064;50.226;14.344;2023-08-06T02:47:15;98481.09;;;15.03;100.00
77112;BME280;66064;50.226;14.344;2023-08-06T02:49:41;98474.97;;;14.98;100.00
77112;BME280;66064;50.226;14.344;2023-08-06T02:52:07;98469.47;;;15.04;100.00
77112;BME280;66064;50.226;14.344;2023-08-06T02:54:33;98457.09;;;14.98;100.00
77112;BME280;66064;50.226;14.344;2023-08-06T02:56:59;98470.25;;;15.09;100.00
77112;BME280;66064;50.226;14.344;2023-08-06T02:59:25;98470.31;;;15.06;100.00
77112;BME280;66064;50.226;14.344;2023-08-06T03:01:50;98473.91;;;15.05;100.00
77112;BME280;66064;50.226;14.344;2023-08-06T03:04:17;98459.88;;;14.94;100.00
77112;BME280;66064;50.226;14.344;2023-08-06T03:06:43;98460.75;;;14.94;100.00
77112;BME280;66064;50.226;14.344;2023-08-06T03:09:09;98461.56;;;14.98;100.00
77112;BME280;66064;50.226;14.344;2023-08-06T03:11:35;98461.53;;;14.99;100.00
77112;BME280;66064;50.226;14.344;2023-08-06T03:14:01;98457.19;;;14.94;100.00
77112;BME280;66064;50.226;14.344;2023-08-06T03:16:27;98460.72;;;14.96;100.00
77112;BME280;66064;50.226;14.344;2023-08-06T03:18:53;98452.78;;;14.93;100.00
77112;BME280;66064;50.226;14.344;2023-08-06T03:21:19;98454.53;;;14.94;100.00
77112;BME280;66064;50.226;14.344;2023-08-06T03:23:47;98451.78;;;14.97;100.00
77112;BME280;66064;50.226;14.344;2023-08-06T03:26:14;98457.13;;;14.97;100.00
77112;BME280;66064;50.226;14.344;2023-08-06T03:28:40;98452.66;;;14.97;100.00
77112;BME280;66064;50.226;14.344;2023-08-06T03:31:06;98445.56;;;14.95;100.00
77112;BME280;66064;50.226;14.344;2023-08-06T03:33:32;98440.22;;;14.95;100.00
77112;BME280;66064;50.226;14.344;2023-08-06T03:35:59;98445.50;;;14.98;100.00
77112;BME280;66064;50.226;14.344;2023-08-06T03:38:26;98437.53;;;14.95;100.00
77112;BME280;66064;50.226;14.344;2023-08-06T03:40:52;98433.28;;;14.88;100.00
77112;BME280;66064;50.226;14.344;2023-08-06T03:43:25;98426.97;;;14.90;100.00
77112;BME280;66064;50.226;14.344;2023-08-06T03:45:51;98433.03;;;14.97;100.00
77112;BME280;66064;50.226;14.344;2023-08-06T03:48:18;98426.78;;;14.96;100.00
77112;BME280;66064;50.226;14.344;2023-08-06T03:50:44;98422.31;;;14.97;100.00
77112;BME280;66064;50.226;14.344;2023-08-06T03:53:11;98411.78;;;14.91;100.00
77112;BME280;66064;50.226;14.344;2023-08-06T03:55:41;98422.47;;;14.91;100.00
77112;BME280;66064;50.226;14.344;2023-08-06T03:58:07;98414.47;;;14.89;100.00
77112;BME280;66064;50.226;14.344;2023-08-06T04:00:33;98406.63;;;14.82;100.00
77112;BME280;66064;50.226;14.344;2023-08-06T04:02:59;98411.88;;;14.86;100.00
77112;BME280;66064;50.226;14.344;2023-08-06T04:05:25;98395.88;;;14.83;100.00
77112;BME280;66064;50.226;14.344;2023-08-06T04:07:51;98399.38;;;14.87;100.00
77112;BME280;66064;50.226;14.344;2023-08-06T04:10:19;98401.13;;;14.88;100.00
77112;BME280;66064;50.226;14.344;2023-08-06T04:12:45;98395.78;;;14.88;100.00
77112;BME280;66064;50.226;14.344;2023-08-06T04:15:12;98393.91;;;14.91;100.00
77112;BME280;66064;50.226;14.344;2023-08-06T04:17:38;98390.34;;;14.91;100.00
77112;BME280;66064;50.226;14.344;2023-08-06T04:20:05;98382.34;;;14.89;100.00
77112;BME280;66064;50.226;14.344;2023-08-06T04:22:31;98388.44;;;14.94;100.00
77112;BME280;66064;50.226;14.344;2023-08-06T04:24:57;98387.50;;;14.95;100.00
77112;BME280;66064;50.226;14.344;2023-08-06T04:27:24;98377.78;;;14.93;100.00
77112;BME280;66064;50.226;14.344;2023-08-06T04:29:50;98368.03;;;14.90;100.00
77112;BME280;66064;50.226;14.344;2023-08-06T04:32:17;98360.97;;;14.86;100.00
77112;BME280;66064;50.226;14.344;2023-08-06T04:34:45;98370.50;;;14.98;100.00
77112;BME280;66064;50.226;14.344;2023-08-06T04:37:12;98374.00;;;15.00;100.00
77112;BME280;66064;50.226;14.344;2023-08-06T04:39:38;98374.00;;;15.00;100.00
77112;BME280;66064;50.226;14.344;2023-08-06T04:42:06;98362.53;;;14.95;100.00
77112;BME280;66064;50.226;14.344;2023-08-06T04:44:32;98379.28;;;15.03;100.00
77112;BME280;66064;50.226;14.344;2023-08-06T04:46:58;98369.47;;;15.03;100.00
77112;BME280;66064;50.226;14.344;2023-08-06T04:49:25;98370.25;;;15.07;100.00
77112;BME280;66064;50.226;14.344;2023-08-06T04:51:59;98361.31;;;15.08;100.00
77112;BME280;66064;50.226;14.344;2023-08-06T04:54:25;98361.28;;;15.10;100.00
77112;BME280;66064;50.226;14.344;2023-08-06T04:56:52;98353.22;;;15.10;100.00
77112;BME280;66064;50.226;14.344;2023-08-06T04:59:18;98355.75;;;15.14;100.00
77112;BME280;66064;50.226;14.344;2023-08-06T05:01:46;98353.84;;;15.19;100.00
77112;BME280;66064;50.226;14.344;2023-08-06T05:04:12;98354.66;;;15.23;100.00
77112;BME280;66064;50.226;14.344;2023-08-06T05:06:38;98345.56;;;15.27;100.00
77112;BME280;66064;50.226;14.344;2023-08-06T05:09:04;98355.25;;;15.32;100.00
77112;BME280;66064;50.226;14.344;2023-08-06T05:11:32;98339.97;;;15.36;100.00
77112;BME280;66064;50.226;14.344;2023-08-06T05:13:58;98340.94;;;15.33;100.00
77112;BME280;66064;50.226;14.344;2023-08-06T05:16:25;98332.69;;;15.41;100.00
77112;BME280;66064;50.226;14.344;2023-08-06T05:18:52;98332.06;;;15.31;100.00
77112;BME280;66064;50.226;14.344;2023-08-06T05:21:18;98342.69;;;15.34;100.00
77112;BME280;66064;50.226;14.344;2023-08-06T05:23:44;98341.78;;;15.35;100.00
77112;BME280;66064;50.226;14.344;2023-08-06T05:26:10;98322.13;;;15.35;100.00
77112;BME280;66064;50.226;14.344;2023-08-06T05:28:36;98337.94;;;15.44;100.00
77112;BME280;66064;50.226;14.344;2023-08-06T05:31:08;98347.00;;;15.40;100.00
77112;BME280;66064;50.226;14.344;2023-08-06T05:33:34;98330.88;;;15.42;100.00
77112;BME280;66064;50.226;14.344;2023-08-06T05:36:01;98334.22;;;15.50;100.00
77112;BME280;66064;50.226;14.344;2023-08-06T05:38:27;98323.34;;;15.56;100.00
77112;BME280;66064;50.226;14.344;2023-08-06T05:40:54;98338.19;;;15.67;100.00
77112;BME280;66064;50.226;14.344;2023-08-06T05:43:22;98334.41;;;15.74;100.00
77112;BME280;66064;50.226;14.344;2023-08-06T05:45:51;98323.63;;;15.76;100.00
77112;BME280;66064;50.226;14.344;2023-08-06T05:48:20;98325.03;;;15.89;100.00
77112;BME280;66064;50.226;14.344;2023-08-06T05:50:48;98327.59;;;15.92;100.00
77112;BME280;66064;50.226;14.344;2023-08-06T05:53:14;98321.16;;;15.98;100.00
77112;BME280;66064;50.226;14.344;2023-08-06T05:55:41;98312.84;;;16.07;100.00
77112;BME280;66064;50.226;14.344;2023-08-06T05:58:07;98310.88;;;16.12;100.00
77112;BME280;66064;50.226;14.344;2023-08-06T06:00:33;98318.69;;;16.20;100.00
77112;BME280;66064;50.226;14.344;2023-08-06T06:03:01;98317.13;;;16.13;100.00
77112;BME280;66064;50.226;14.344;2023-08-06T06:05:28;98316.94;;;16.19;100.00
77112;BME280;66064;50.226;14.344;2023-08-06T06:07:54;98320.72;;;16.12;100.00
77112;BME280;66064;50.226;14.344;2023-08-06T06:10:20;98322.97;;;16.25;100.00
77112;BME280;66064;50.226;14.344;2023-08-06T06:12:47;98312.28;;;16.24;100.00
77112;BME280;66064;50.226;14.344;2023-08-06T06:15:14;98313.16;;;16.24;100.00
77112;BME280;66064;50.226;14.344;2023-08-06T06:17:40;98320.78;;;16.38;100.00
77112;BME280;66064;50.226;14.344;2023-08-06T06:20:07;98318.56;;;16.51;100.00
77112;BME280;66064;50.226;14.344;2023-08-06T06:22:33;98308.84;;;16.47;100.00
77112;BME280;66064;50.226;14.344;2023-08-06T06:25:00;98311.28;;;16.54;100.00
77112;BME280;66064;50.226;14.344;2023-08-06T06:27:25;98320.22;;;16.55;100.00
77112;BME280;66064;50.226;14.344;2023-08-06T06:29:51;98321.69;;;16.65;100.00
77112;BME280;66064;50.226;14.344;2023-08-06T06:32:18;98315.34;;;16.67;100.00
77112;BME280;66064;50.226;14.344;2023-08-06T06:34:45;98313.59;;;16.66;100.00
77112;BME280;66064;50.226;14.344;2023-08-06T06:37:11;98317.25;;;16.62;100.00
77112;BME280;66064;50.226;14.344;2023-08-06T06:39:37;98320.78;;;16.66;100.00
77112;BME280;66064;50.226;14.344;2023-08-06T06:42:03;98317.97;;;16.69;100.00
77112;BME280;66064;50.226;14.344;2023-08-06T06:44:31;98321.84;;;16.87;100.00
77112;BME280;66064;50.226;14.344;2023-08-06T06:46:57;98323.47;;;16.91;100.00
77112;BME280;66064;50.226;14.344;2023-08-06T06:49:24;98310.97;;;16.90;100.00
77112;BME280;66064;50.226;14.344;2023-08-06T06:51:50;98316.63;;;17.07;100.00
77112;BME280;66064;50.226;14.344;2023-08-06T06:54:16;98311.88;;;17.15;100.00
77112;BME280;66064;50.226;14.344;2023-08-06T06:56:42;98319.28;;;17.33;100.00
77112;BME280;66064;50.226;14.344;2023-08-06T06:59:08;98326.81;;;17.47;100.00
77112;BME280;66064;50.226;14.344;2023-08-06T07:01:34;98304.91;;;17.58;99.91
77112;BME280;66064;50.226;14.344;2023-08-06T07:04:00;98297.72;;;17.58;99.39
77112;BME280;66064;50.226;14.344;2023-08-06T07:06:31;98314.22;;;17.72;98.90
77112;BME280;66064;50.226;14.344;2023-08-06T07:08:57;98312.53;;;17.70;96.63
77112;BME280;66064;50.226;14.344;2023-08-06T07:11:23;98305.59;;;17.63;96.75
77112;BME280;66064;50.226;14.344;2023-08-06T07:13:56;98308.22;;;17.66;96.35
77112;BME280;66064;50.226;14.344;2023-08-06T07:16:21;98305.09;;;17.76;98.58
77112;BME280;66064;50.226;14.344;2023-08-06T07:18:48;98302.38;;;17.78;98.18
77112;BME280;66064;50.226;14.344;2023-08-06T07:21:15;98299.31;;;17.87;94.20
77112;BME280;66064;50.226;14.344;2023-08-06T07:23:41;98299.56;;;17.81;95.49
77112;BME280;66064;50.226;14.344;2023-08-06T07:26:07;98287.88;;;17.82;95.58
77112;BME280;66064;50.226;14.344;2023-08-06T07:28:35;98301.28;;;18.05;95.64
77112;BME280;66064;50.226;14.344;2023-08-06T07:31:03;98299.22;;;18.12;96.47
77112;BME280;66064;50.226;14.344;2023-08-06T07:33:29;98299.16;;;18.13;94.55
77112;BME280;66064;50.226;14.344;2023-08-06T07:35:55;98307.78;;;18.22;94.85
77112;BME280;66064;50.226;14.344;2023-08-06T07:38:21;98305.97;;;18.22;93.63
77112;BME280;66064;50.226;14.344;2023-08-06T07:40:48;98304.03;;;18.26;95.15
77112;BME280;66064;50.226;14.344;2023-08-06T07:43:14;98297.13;;;18.18;95.27
77112;BME280;66064;50.226;14.344;2023-08-06T07:45:41;98301.41;;;18.24;95.55
77112;BME280;66064;50.226;14.344;2023-08-06T07:48:07;98303.16;;;18.03;94.14
77112;BME280;66064;50.226;14.344;2023-08-06T07:50:34;98300.72;;;17.74;94.62
77112;BME280;66064;50.226;14.344;2023-08-06T07:53:01;98289.03;;;17.75;95.66
77112;BME280;66064;50.226;14.344;2023-08-06T07:55:26;98288.78;;;17.81;95.42
77112;BME280;66064;50.226;14.344;2023-08-06T07:57:54;98285.91;;;17.62;94.34
77112;BME280;66064;50.226;14.344;2023-08-06T08:00:20;98276.03;;;17.63;95.58
77112;BME280;66064;50.226;14.344;2023-08-06T08:02:46;98286.78;;;17.63;96.68
77112;BME280;66064;50.226;14.344;2023-08-06T08:05:12;98287.59;;;17.66;96.87
77112;BME280;66064;50.226;14.344;2023-08-06T08:07:38;98281.38;;;17.64;97.28
77112;BME280;66064;50.226;14.344;2023-08-06T08:10:05;98277.56;;;17.70;97.08
77112;BME280;66064;50.226;14.344;2023-08-06T08:12:32;98271.44;;;17.66;96.71
77112;BME280;66064;50.226;14.344;2023-08-06T08:14:58;98276.97;;;17.85;95.11
77112;BME280;66064;50.226;14.344;2023-08-06T08:17:30;98256.50;;;17.81;94.62
77112;BME280;66064;50.226;14.344;2023-08-06T08:19:56;98253.16;;;17.74;94.08
77112;BME280;66064;50.226;14.344;2023-08-06T08:22:22;98269.63;;;17.89;94.69
77112;BME280;66064;50.226;14.344;2023-08-06T08:24:48;98262.56;;;17.86;94.08
77112;BME280;66064;50.226;14.344;2023-08-06T08:27:15;98273.09;;;17.92;93.11
77112;BME280;66064;50.226;14.344;2023-08-06T08:29:42;98274.84;;;17.93;94.33
77112;BME280;66064;50.226;14.344;2023-08-06T08:32:08;98264.41;;;17.86;93.84
77112;BME280;66064;50.226;14.344;2023-08-06T08:34:33;98266.34;;;17.82;93.53
77112;BME280;66064;50.226;14.344;2023-08-06T08:37:00;98266.22;;;17.85;92.75
77112;BME280;66064;50.226;14.344;2023-08-06T08:39:33;98262.72;;;17.83;92.81
77112;BME280;66064;50.226;14.344;2023-08-06T08:41:59;98269.69;;;17.87;93.11
77112;BME280;66064;50.226;14.344;2023-08-06T08:44:27;98266.22;;;17.85;90.30
77112;BME280;66064;50.226;14.344;2023-08-06T08:46:56;98264.09;;;17.93;92.08
77112;BME280;66064;50.226;14.344;2023-08-06T08:49:23;98271.72;;;18.04;91.59
77112;BME280;66064;50.226;14.344;2023-08-06T08:51:50;98253.06;;;18.21;91.24
77112;BME280;66064;50.226;14.344;2023-08-06T08:54:19;98261.84;;;18.48;88.65
77112;BME280;66064;50.226;14.344;2023-08-06T08:56:48;98252.31;;;18.61;89.01
77112;BME280;66064;50.226;14.344;2023-08-06T08:59:14;98258.28;;;18.68;87.80
77112;BME280;66064;50.226;14.344;2023-08-06T09:01:42;98252.41;;;18.58;85.54
77112;BME280;66064;50.226;14.344;2023-08-06T09:04:10;98256.22;;;18.52;86.55
77112;BME280;66064;50.226;14.344;2023-08-06T09:06:38;98259.50;;;18.39;87.93
77112;BME280;66064;50.226;14.344;2023-08-06T09:09:17;98256.03;;;18.57;88.21
77112;BME280;66064;50.226;14.344;2023-08-06T09:11:48;98250.38;;;18.65;88.46
77112;BME280;66064;50.226;14.344;2023-08-06T09:14:16;98255.81;;;18.83;86.85
77112;BME280;66064;50.226;14.344;2023-08-06T09:16:43;98240.88;;;18.97;87.31
77112;BME280;66064;50.226;14.344;2023-08-06T09:19:11;98234.00;;;18.90;86.61
77112;BME280;66064;50.226;14.344;2023-08-06T09:21:41;98234.81;;;18.92;86.63
77112;BME280;66064;50.226;14.344;2023-08-06T09:24:12;98224.47;;;19.01;84.99
77112;BME280;66064;50.226;14.344;2023-08-06T09:26:43;98238.81;;;19.02;86.11
77112;BME280;66064;50.226;14.344;2023-08-06T09:29:09;98233.97;;;19.10;86.52
77112;BME280;66064;50.226;14.344;2023-08-06T09:31:51;98237.63;;;19.09;85.57
77112;BME280;66064;50.226;14.344;2023-08-06T09:34:21;98231.78;;;19.18;85.65
77112;BME280;66064;50.226;14.344;2023-08-06T09:36:53;98223.78;;;19.16;83.64
77112;BME280;66064;50.226;14.344;2023-08-06T09:39:27;98225.97;;;19.08;82.78
77112;BME280;66064;50.226;14.344;2023-08-06T09:41:58;98237.66;;;19.28;84.47
77112;BME280;66064;50.226;14.344;2023-08-06T09:44:26;98225.31;;;19.22;84.81
77112;BME280;66064;50.226;14.344;2023-08-06T09:47:02;98207.19;;;19.26;85.18
77112;BME280;66064;50.226;14.344;2023-08-06T09:51:59;98214.91;;;19.33;84.79
77112;BME280;66064;50.226;14.344;2023-08-06T09:54:26;98215.91;;;19.51;83.00
77112;BME280;66064;50.226;14.344;2023-08-06T09:56:54;98215.09;;;19.68;85.24
77112;BME280;66064;50.226;14.344;2023-08-06T09:59:21;98207.66;;;19.91;84.66
77112;BME280;66064;50.226;14.344;2023-08-06T10:01:48;98207.31;;;19.80;82.41
77112;BME280;66064;50.226;14.344;2023-08-06T10:04:15;98208.59;;;20.09;81.11
77112;BME280;66064;50.226;14.344;2023-08-06T10:06:46;98207.88;;;20.42;80.12
77112;BME280;66064;50.226;14.344;2023-08-06T10:09:17;98210.59;;;20.59;80.98
77112;BME280;66064;50.226;14.344;2023-08-06T10:11:51;98210.31;;;20.46;78.94
77112;BME280;66064;50.226;14.344;2023-08-06T10:14:31;98204.16;;;20.44;78.96
77112;BME280;66064;50.226;14.344;2023-08-06T10:16:59;98210.06;;;20.34;79.02
77112;BME280;66064;50.226;14.344;2023-08-06T10:19:29;98204.00;;;20.11;78.85
77112;BME280;66064;50.226;14.344;2023-08-06T10:24:51;98197.25;;;20.20;77.96
77112;BME280;66064;50.226;14.344;2023-08-06T10:30:31;98194.81;;;19.97;78.31
77112;BME280;66064;50.226;14.344;2023-08-06T10:33:02;98194.13;;;19.74;77.80
77112;BME280;66064;50.226;14.344;2023-08-06T10:38:12;98192.88;;;19.63;78.83
77112;BME280;66064;50.226;14.344;2023-08-06T10:40:40;98183.16;;;19.77;77.98
77112;BME280;66064;50.226;14.344;2023-08-06T10:43:35;98181.16;;;19.81;79.25
77112;BME280;66064;50.226;14.344;2023-08-06T10:46:02;98182.09;;;19.99;76.66
77112;BME280;66064;50.226;14.344;2023-08-06T10:48:45;98184.06;;;20.31;77.79
77112;BME280;66064;50.226;14.344;2023-08-06T10:51:13;98184.50;;;20.41;77.68
77112;BME280;66064;50.226;14.344;2023-08-06T10:53:45;98185.78;;;20.51;75.87
77112;BME280;66064;50.226;14.344;2023-08-06T10:56:17;98175.53;;;20.75;74.98
77112;BME280;66064;50.226;14.344;2023-08-06T10:58:44;98174.66;;;20.74;75.88
77112;BME280;66064;50.226;14.344;2023-08-06T11:01:11;98173.56;;;20.61;74.53
77112;BME280;66064;50.226;14.344;2023-08-06T11:03:41;98182.75;;;20.74;72.27
77112;BME280;66064;50.226;14.344;2023-08-06T11:06:07;98180.22;;;20.54;73.78
77112;BME280;66064;50.226;14.344;2023-08-06T11:08:35;98181.34;;;20.31;73.31
77112;BME280;66064;50.226;14.344;2023-08-06T11:11:27;98189.19;;;19.82;73.84
77112;BME280;66064;50.226;14.344;2023-08-06T11:13:55;98191.47;;;19.73;75.95
77112;BME280;66064;50.226;14.344;2023-08-06T11:16:24;98187.78;;;19.56;75.84
77112;BME280;66064;50.226;14.344;2023-08-06T11:18:51;98180.00;;;19.49;77.19
77112;BME280;66064;50.226;14.344;2023-08-06T11:21:22;98188.81;;;19.15;77.11
77112;BME280;66064;50.226;14.344;2023-08-06T11:23:54;98184.69;;;19.45;77.52
77112;BME280;66064;50.226;14.344;2023-08-06T11:26:22;98178.06;;;19.52;76.38
77112;BME280;66064;50.226;14.344;2023-08-06T11:28:50;98173.69;;;19.69;75.14
77112;BME280;66064;50.226;14.344;2023-08-06T11:31:24;98177.84;;;19.76;76.54
77112;BME280;66064;50.226;14.344;2023-08-06T11:33:53;98176.56;;;19.83;76.99
77112;BME280;66064;50.226;14.344;2023-08-06T11:36:36;98177.56;;;19.99;77.63
77112;BME280;66064;50.226;14.344;2023-08-06T11:39:07;98176.19;;;20.09;76.72
77112;BME280;66064;50.226;14.344;2023-08-06T11:41:36;98183.66;;;20.21;76.59
77112;BME280;66064;50.226;14.344;2023-08-06T11:44:05;98183.03;;;20.34;76.63
77112;BME280;66064;50.226;14.344;2023-08-06T11:46:53;98179.34;;;19.81;76.38
77112;BME280;66064;50.226;14.344;2023-08-06T11:49:44;98171.41;;;20.14;76.17
77112;BME280;66064;50.226;14.344;2023-08-06T11:52:14;98180.66;;;20.27;75.00
77112;BME280;66064;50.226;14.344;2023-08-06T11:54:41;98170.31;;;20.36;76.49
77112;BME280;66064;50.226;14.344;2023-08-06T11:57:08;98166.41;;;20.43;76.29
77112;BME280;66064;50.226;14.344;2023-08-06T11:59:34;98173.97;;;20.35;76.64
77112;BME280;66064;50.226;14.344;2023-08-06T12:02:03;98171.75;;;20.25;75.73
77112;BME280;66064;50.226;14.344;2023-08-06T12:04:32;98172.47;;;20.12;77.11
77112;BME280;66064;50.226;14.344;2023-08-06T12:07:16;98169.06;;;20.25;77.88
77112;BME280;66064;50.226;14.344;2023-08-06T12:09:44;98153.19;;;20.37;77.59
77112;BME280;66064;50.226;14.344;2023-08-06T12:12:10;98151.44;;;20.53;74.61
77112;BME280;66064;50.226;14.344;2023-08-06T12:14:36;98156.25;;;20.81;76.05
77112;BME280;66064;50.226;14.344;2023-08-06T12:17:02;98162.94;;;20.91;75.54
77112;BME280;66064;50.226;14.344;2023-08-06T12:19:28;98153.63;;;20.79;72.75
77112;BME280;66064;50.226;14.344;2023-08-06T12:21:56;98158.41;;;20.91;74.00
77112;BME280;66064;50.226;14.344;2023-08-06T12:24:22;98151.53;;;21.02;73.96
77112;BME280;66064;50.226;14.344;2023-08-06T12:26:49;98147.69;;;20.73;73.53
77112;BME280;66064;50.226;14.344;2023-08-06T12:29:16;98144.69;;;20.62;72.77
77112;BME280;66064;50.226;14.344;2023-08-06T12:31:41;98148.88;;;20.67;73.87
77112;BME280;66064;50.226;14.344;2023-08-06T12:34:08;98149.22;;;20.61;75.25
77112;BME280;66064;50.226;14.344;2023-08-06T12:36:36;98152.97;;;20.41;73.61
77112;BME280;66064;50.226;14.344;2023-08-06T12:39:02;98153.00;;;20.22;75.40
77112;BME280;66064;50.226;14.344;2023-08-06T12:41:28;98144.41;;;20.32;74.86
77112;BME280;66064;50.226;14.344;2023-08-06T12:43:55;98145.16;;;20.52;74.63
77112;BME280;66064;50.226;14.344;2023-08-06T12:46:21;98142.69;;;20.48;74.66
77112;BME280;66064;50.226;14.344;2023-08-06T12:48:47;98139.84;;;20.51;75.87
77112;BME280;66064;50.226;14.344;2023-08-06T12:51:14;98143.63;;;20.64;74.48
77112;BME280;66064;50.226;14.344;2023-08-06T12:53:40;98143.31;;;20.36;76.32
77112;BME280;66064;50.226;14.344;2023-08-06T12:56:06;98155.09;;;20.52;73.91
77112;BME280;66064;50.226;14.344;2023-08-06T12:58:33;98143.31;;;20.36;73.93
77112;BME280;66064;50.226;14.344;2023-08-06T13:00:59;98152.31;;;20.53;73.63
77112;BME280;66064;50.226;14.344;2023-08-06T13:03:25;98149.69;;;20.52;73.93
77112;BME280;66064;50.226;14.344;2023-08-06T13:05:52;98147.47;;;20.60;71.10
77112;BME280;66064;50.226;14.344;2023-08-06T13:08:18;98150.22;;;20.93;70.68